createdAt,value
2016-11-18T00:00:32.825Z,8.12
2016-11-18T00:01:13.330Z,8.1
2016-11-18T00:01:53.801Z,8.12
2016-11-18T00:02:35.266Z,8.1
2016-11-18T00:03:15.775Z,8.12
2016-11-18T00:03:56.309Z,8.09
2016-11-18T00:04:36.748Z,8.06
2016-11-18T00:05:17.263Z,8
2016-11-18T00:05:57.721Z,8.06
2016-11-18T00:06:38.240Z,8.09
2016-11-18T00:07:19.532Z,8.08
2016-11-18T00:08:00.051Z,8
2016-11-18T00:08:40.535Z,7.97
2016-11-18T00:09:21.027Z,8
2016-11-18T00:10:01.496Z,8.06
2016-11-18T00:10:41.966Z,8
2016-11-18T00:11:22.436Z,7.98
2016-11-18T00:12:02.945Z,7.98
2016-11-18T00:12:43.447Z,7.95
2016-11-18T00:13:23.942Z,7.95
2016-11-18T00:14:04.473Z,7.97
2016-11-18T00:14:44.936Z,7.95
2016-11-18T00:15:26.317Z,7.95
2016-11-18T00:16:06.822Z,8
2016-11-18T00:16:47.295Z,7.98
2016-11-18T00:17:27.771Z,7.95
2016-11-18T00:18:08.290Z,8.01
2016-11-18T00:18:48.844Z,7.91
2016-11-18T00:19:29.309Z,7.97
2016-11-18T00:20:09.763Z,8
2016-11-18T00:20:50.248Z,7.94
2016-11-18T00:21:30.756Z,7.97
2016-11-18T00:22:11.251Z,7.95
2016-11-18T00:22:53.602Z,7.93
2016-11-18T00:23:34.115Z,7.93
2016-11-18T00:24:14.599Z,7.91
2016-11-18T00:24:55.112Z,7.95
2016-11-18T00:25:35.582Z,7.94
2016-11-18T00:26:16.124Z,7.97
2016-11-18T00:26:57.393Z,7.94
2016-11-18T00:27:37.880Z,7.88
2016-11-18T00:28:18.354Z,7.91
2016-11-18T00:28:58.839Z,7.87
2016-11-18T00:29:39.346Z,7.93
2016-11-18T00:30:19.840Z,7.8
2016-11-18T00:31:00.272Z,7.82
2016-11-18T00:31:40.744Z,7.83
2016-11-18T00:32:21.235Z,7.83
2016-11-18T00:33:01.713Z,7.82
2016-11-18T00:33:42.193Z,7.83
2016-11-18T00:34:22.687Z,7.77
2016-11-18T00:35:03.189Z,7.82
2016-11-18T00:35:43.635Z,7.73
2016-11-18T00:36:24.172Z,7.8
2016-11-18T00:37:04.725Z,7.82
2016-11-18T00:37:45.235Z,7.8
2016-11-18T00:38:25.720Z,7.75
2016-11-18T00:39:06.217Z,7.82
2016-11-18T00:39:46.657Z,7.7
2016-11-18T00:40:27.794Z,7.69
2016-11-18T00:41:08.321Z,7.76
2016-11-18T00:41:48.849Z,7.76
2016-11-18T00:42:29.361Z,7.72
2016-11-18T00:43:09.856Z,7.7
2016-11-18T00:43:50.368Z,7.75
2016-11-18T00:44:30.799Z,7.76
2016-11-18T00:45:11.296Z,7.75
2016-11-18T00:45:51.777Z,7.72
2016-11-18T00:46:32.262Z,7.73
2016-11-18T00:47:12.743Z,7.75
2016-11-18T00:47:53.246Z,7.7
2016-11-18T00:48:33.802Z,7.72
2016-11-18T00:49:14.283Z,7.7
2016-11-18T00:49:54.737Z,7.7
2016-11-18T00:50:35.223Z,7.66
2016-11-18T00:51:15.648Z,7.75
2016-11-18T00:51:56.121Z,7.7
2016-11-18T00:52:36.602Z,7.63
2016-11-18T00:53:17.112Z,7.67
2016-11-18T00:53:57.577Z,7.69
2016-11-18T00:54:38.109Z,7.67
2016-11-18T00:55:18.560Z,7.63
2016-11-18T00:55:59.051Z,7.6
2016-11-18T00:56:39.548Z,7.66
2016-11-18T00:57:20.633Z,7.67
2016-11-18T00:58:01.098Z,7.6
2016-11-18T00:58:41.555Z,7.48
2016-11-18T00:59:22.045Z,7.56
2016-11-18T01:00:02.529Z,7.48
2016-11-18T01:00:43.030Z,7.51
2016-11-18T01:01:23.521Z,7.43
2016-11-18T01:02:04.046Z,7.48
2016-11-18T01:02:44.523Z,7.47
2016-11-18T01:03:25.001Z,7.47
2016-11-18T01:04:05.491Z,7.42
2016-11-18T01:04:45.980Z,7.4
2016-11-18T01:05:26.457Z,7.38
2016-11-18T01:06:06.904Z,7.35
2016-11-18T01:06:47.903Z,7.36
2016-11-18T01:07:28.366Z,7.39
2016-11-18T01:08:08.903Z,7.39
2016-11-18T01:10:25.294Z,7.4
2016-11-18T01:11:14.421Z,7.28
2016-11-18T01:12:02.689Z,7.29
2016-11-18T01:12:51.227Z,7.24
2016-11-18T01:13:40.146Z,7.25
2016-11-18T01:14:28.236Z,7.29
2016-11-18T01:15:17.064Z,7.18
2016-11-18T01:16:05.597Z,7.13
2016-11-18T01:16:54.252Z,7.15
2016-11-18T01:17:43.020Z,7.15
2016-11-18T01:18:31.578Z,7.11
2016-11-18T01:19:19.977Z,7.13
2016-11-18T01:20:08.743Z,7.03
2016-11-18T01:20:57.482Z,6.99
2016-11-18T01:21:46.195Z,7.13
2016-11-18T01:22:34.898Z,7.11
2016-11-18T01:23:23.828Z,7.14
2016-11-18T01:24:12.182Z,7.11
2016-11-18T01:25:00.922Z,7.14
2016-11-18T01:25:49.945Z,7.14
2016-11-18T01:26:38.448Z,7.2
2016-11-18T01:27:27.065Z,7.15
2016-11-18T01:28:15.722Z,7.17
2016-11-18T01:29:04.561Z,7.15
2016-11-18T01:29:52.684Z,7.15
2016-11-18T01:30:41.567Z,7.17
2016-11-18T01:31:30.499Z,7.17
2016-11-18T01:32:18.664Z,7.15
2016-11-18T01:33:06.976Z,7.17
2016-11-18T01:33:55.630Z,7.11
2016-11-18T01:34:42.886Z,7.07
2016-11-18T01:35:32.813Z,7.11
2016-11-18T01:36:21.435Z,7.13
2016-11-18T01:37:10.426Z,7.11
2016-11-18T01:37:58.741Z,7.11
2016-11-18T01:39:50.103Z,7.17
2016-11-18T01:40:38.556Z,7.17
2016-11-18T01:41:27.412Z,7.14
2016-11-18T01:42:15.557Z,7.17
2016-11-18T01:43:04.728Z,7.11
2016-11-18T01:43:53.139Z,7.15
2016-11-18T01:44:41.345Z,7.15
2016-11-18T01:45:30.206Z,7.14
2016-11-18T01:46:19.119Z,7.18
2016-11-18T01:47:07.390Z,7.14
2016-11-18T01:47:56.116Z,7.14
2016-11-18T01:48:44.962Z,7.17
2016-11-18T01:49:33.283Z,7.18
2016-11-18T01:50:21.339Z,7.14
2016-11-18T01:51:10.113Z,7.18
2016-11-18T01:51:59.134Z,7.11
2016-11-18T01:52:47.316Z,7.15
2016-11-18T01:53:36.526Z,7.15
2016-11-18T01:54:24.763Z,7.2
2016-11-18T01:55:13.348Z,7.2
2016-11-18T01:56:02.072Z,7.15
2016-11-18T01:56:50.752Z,7.07
2016-11-18T01:57:36.509Z,7.1
2016-11-18T01:58:25.549Z,7.14
2016-11-18T01:59:13.749Z,7.14
2016-11-18T02:00:02.342Z,7.11
2016-11-18T02:00:50.815Z,7.15
2016-11-18T02:01:39.919Z,7.15
2016-11-18T02:02:28.030Z,7.14
2016-11-18T02:03:16.509Z,7.13
2016-11-18T02:04:05.399Z,7.14
2016-11-18T02:04:53.899Z,7.17
2016-11-18T02:05:42.536Z,7.14
2016-11-18T02:06:31.049Z,7.17
2016-11-18T02:07:20.019Z,7.15
2016-11-18T02:08:08.593Z,7.17
2016-11-18T02:08:57.091Z,7.15
2016-11-18T02:09:46.095Z,7.14
2016-11-18T02:10:34.078Z,7.11
2016-11-18T02:11:22.846Z,7.1
2016-11-18T02:12:09.348Z,7.14
2016-11-18T02:12:49.781Z,7.17
2016-11-18T02:13:30.291Z,7.07
2016-11-18T02:14:10.758Z,6.96
2016-11-18T02:14:51.210Z,6.99
2016-11-18T02:15:31.705Z,7.05
2016-11-18T02:16:12.188Z,6.95
2016-11-18T02:16:52.625Z,7.02
2016-11-18T02:17:33.090Z,6.99
2016-11-18T02:18:13.588Z,7.05
2016-11-18T02:18:54.084Z,7
2016-11-18T02:19:34.552Z,7
2016-11-18T02:20:15.069Z,7.02
2016-11-18T02:20:55.494Z,6.96
2016-11-18T02:21:35.985Z,6.99
2016-11-18T02:22:16.512Z,7
2016-11-18T02:22:56.972Z,7.06
2016-11-18T02:23:37.448Z,7.06
2016-11-18T02:24:17.930Z,7.03
2016-11-18T02:24:58.419Z,7.02
2016-11-18T02:25:38.956Z,7
2016-11-18T02:26:20.327Z,6.99
2016-11-18T02:27:00.822Z,7
2016-11-18T02:27:41.287Z,7
2016-11-18T02:28:21.762Z,7.05
2016-11-18T02:29:02.230Z,6.99
2016-11-18T02:29:42.720Z,6.99
2016-11-18T02:30:23.161Z,7
2016-11-18T02:31:03.649Z,7.02
2016-11-18T02:31:44.246Z,6.99
2016-11-18T02:32:24.664Z,7.02
2016-11-18T02:33:05.140Z,6.97
2016-11-18T02:33:45.626Z,6.97
2016-11-18T02:34:26.087Z,6.93
2016-11-18T02:35:06.544Z,6.99
2016-11-18T02:35:47.021Z,6.99
2016-11-18T02:36:27.488Z,7
2016-11-18T02:37:07.967Z,6.97
2016-11-18T02:37:48.437Z,7.03
2016-11-18T02:38:28.851Z,6.97
2016-11-18T02:39:09.919Z,7.02
2016-11-18T02:39:50.421Z,6.95
2016-11-18T02:40:30.876Z,6.99
2016-11-18T02:41:11.340Z,6.88
2016-11-18T02:41:51.851Z,6.92
2016-11-18T02:42:32.297Z,6.88
2016-11-18T02:43:12.772Z,6.89
2016-11-18T02:43:53.259Z,6.95
2016-11-18T02:44:33.710Z,6.87
